Time;durP1;ratioP1;P1;durP2;ratioP2;P2;SDS_P1;SDS_P2;PMS_P1;PMS_P2;Temp;Humidity;BMP_temperature;BMP_pressure;BME280_temperature;BME280_humidity;BME280_pressure;Samples;Min_cycle;Max_cycle;Signal;HPM_P1;HPM_P2
2021/11/13 00:01:24;;;;;;;37.47;21.30;;;10.40;99.90;;;;;;5049003;28;20025;-82
2021/11/13 00:03:50;;;;;;;45.03;25.80;;;10.40;99.90;;;;;;5053620;28;20498;-82
2021/11/13 00:06:16;;;;;;;41.60;23.42;;;10.40;99.90;;;;;;5055423;28;20078;-84
2021/11/13 00:08:42;;;;;;;39.28;21.10;;;10.40;99.90;;;;;;5047664;28;20071;-81
2021/11/13 00:11:10;;;;;;;40.58;21.10;;;10.40;99.90;;;;;;5062185;28;20100;-80
2021/11/13 00:13:35;;;;;;;45.30;21.58;;;10.40;99.90;;;;;;5049199;28;20108;-80
2021/11/13 00:16:01;;;;;;;41.67;21.85;;;10.50;99.90;;;;;;5057407;28;20425;-80
2021/11/13 00:18:27;;;;;;;36.75;21.33;;;10.50;99.90;;;;;;5043935;28;20091;-81
2021/11/13 00:20:52;;;;;;;46.22;25.08;;;10.50;99.90;;;;;;5052273;28;20045;-80
2021/11/13 00:23:19;;;;;;;44.95;24.58;;;10.40;99.90;;;;;;5048565;28;20059;-81
2021/11/13 00:25:46;;;;;;;45.53;23.75;;;10.40;99.90;;;;;;5048008;28;20013;-80
2021/11/13 00:28:11;;;;;;;47.20;23.52;;;10.50;99.90;;;;;;5046762;28;20039;-80
2021/11/13 00:30:41;;;;;;;47.35;24.38;;;10.50;99.90;;;;;;5050315;28;20033;-80
2021/11/13 00:33:07;;;;;;;49.13;25.45;;;10.40;99.90;;;;;;5046258;28;20032;-80
2021/11/13 00:35:32;;;;;;;49.20;25.60;;;10.50;99.90;;;;;;5051718;28;20017;-83
2021/11/13 00:37:58;;;;;;;48.38;25.92;;;10.50;99.90;;;;;;5051746;28;20028;-82
2021/11/13 00:40:24;;;;;;;46.90;25.33;;;10.50;99.90;;;;;;5050661;28;20029;-82
2021/11/13 00:42:49;;;;;;;49.00;26.25;;;10.50;99.90;;;;;;5049580;28;20030;-83
2021/11/13 00:45:15;;;;;;;50.85;26.23;;;10.50;99.90;;;;;;5044865;28;20083;-83
2021/11/13 00:47:41;;;;;;;52.50;27.92;;;10.50;99.90;;;;;;5053091;28;20086;-83
2021/11/13 00:50:10;;;;;;;53.50;29.23;;;10.50;99.90;;;;;;5055938;28;20025;-82
2021/11/13 00:52:36;;;;;;;56.15;26.25;;;10.40;99.90;;;;;;5056138;28;20472;-83
2021/11/13 00:55:02;;;;;;;57.63;28.27;;;10.40;99.90;;;;;;5047498;28;20043;-82
2021/11/13 00:57:28;;;;;;;49.25;28.58;;;10.50;99.90;;;;;;5053204;28;20801;-82
2021/11/13 00:59:54;;;;;;;51.65;27.63;;;10.50;99.90;;;;;;5052103;28;20028;-81
2021/11/13 01:02:20;;;;;;;55.38;27.85;;;10.50;99.90;;;;;;5045566;28;20040;-81
2021/11/13 01:04:45;;;;;;;55.15;27.42;;;10.50;99.90;;;;;;5055374;28;20022;-82
2021/11/13 01:07:11;;;;;;;51.30;27.92;;;10.50;99.90;;;;;;5051725;28;20035;-82
2021/11/13 01:09:38;;;;;;;50.95;27.00;;;10.50;99.90;;;;;;5056451;28;20033;-82
2021/11/13 01:12:05;;;;;;;55.00;28.50;;;10.50;99.90;;;;;;5052622;28;20504;-83
2021/11/13 01:14:39;;;;;;;48.90;26.42;;;10.50;99.90;;;;;;5014822;28;20537;-82
2021/11/13 01:17:06;;;;;;;53.85;28.58;;;10.60;99.90;;;;;;5044158;28;20039;-82
2021/11/13 01:19:32;;;;;;;52.67;27.40;;;10.60;99.90;;;;;;5050607;28;20492;-83
2021/11/13 01:21:59;;;;;;;56.60;28.05;;;10.60;99.90;;;;;;5052140;28;20033;-83
2021/11/13 01:24:25;;;;;;;55.45;28.50;;;10.60;99.90;;;;;;5052046;28;20021;-83
2021/11/13 01:26:51;;;;;;;52.38;28.02;;;10.70;99.90;;;;;;5040957;28;20036;-82
2021/11/13 01:29:16;;;;;;;50.63;27.85;;;10.60;99.90;;;;;;5045592;28;20028;-82
2021/11/13 01:31:42;;;;;;;51.67;28.00;;;10.60;99.90;;;;;;5046494;28;20443;-80
2021/11/13 01:34:08;;;;;;;51.38;28.02;;;10.70;99.90;;;;;;5047947;28;20025;-82
2021/11/13 01:36:33;;;;;;;52.65;27.45;;;10.70;99.90;;;;;;5043838;28;20080;-82
2021/11/13 01:38:59;;;;;;;46.60;25.77;;;10.60;99.90;;;;;;5040022;28;20029;-84
2021/11/13 01:41:25;;;;;;;52.03;27.88;;;10.60;99.90;;;;;;5043335;28;20374;-82
2021/11/13 01:43:51;;;;;;;47.60;26.05;;;10.60;99.90;;;;;;5043297;28;20437;-82
2021/11/13 01:46:18;;;;;;;61.55;29.80;;;10.70;99.90;;;;;;5048897;28;20048;-82
2021/11/13 01:48:43;;;;;;;51.85;27.10;;;10.80;99.90;;;;;;5042880;28;20033;-83
2021/11/13 01:51:22;;;;;;;53.08;27.50;;;10.80;99.90;;;;;;5045090;28;20468;-83
2021/11/13 01:53:50;;;;;;;56.75;29.75;;;10.80;99.90;;;;;;5047459;28;20028;-82
2021/11/13 01:56:19;;;;;;;51.17;27.45;;;10.90;99.90;;;;;;5044512;28;20013;-82
2021/11/13 01:58:46;;;;;;;47.25;28.02;;;10.90;99.90;;;;;;5042528;28;20056;-82
2021/11/13 02:01:12;;;;;;;53.80;27.15;;;10.90;99.90;;;;;;5042833;28;20035;-82
2021/11/13 02:03:38;;;;;;;49.65;27.83;;;10.90;99.90;;;;;;5046631;28;20029;-82
2021/11/13 02:06:04;;;;;;;54.08;26.98;;;10.90;99.90;;;;;;5046566;28;20023;-82
2021/11/13 02:08:30;;;;;;;45.33;27.10;;;10.90;99.90;;;;;;5045279;28;20124;-83
2021/11/13 02:10:55;;;;;;;49.70;26.45;;;10.90;99.90;;;;;;5045396;28;20088;-83
2021/11/13 02:13:21;;;;;;;45.53;23.98;;;10.80;99.90;;;;;;5045054;28;20025;-83
2021/11/13 02:15:47;;;;;;;46.00;23.92;;;10.80;99.90;;;;;;5042550;28;20533;-83
2021/11/13 02:18:12;;;;;;;44.63;24.52;;;10.90;99.90;;;;;;5043358;28;20028;-81
2021/11/13 02:20:43;;;;;;;50.58;26.70;;;10.90;99.90;;;;;;5041507;28;20067;-81
2021/11/13 02:23:17;;;;;;;47.13;24.65;;;10.90;99.90;;;;;;5042090;28;20029;-81
2021/11/13 02:25:44;;;;;;;47.03;26.67;;;10.90;99.90;;;;;;5046527;28;20120;-81
2021/11/13 02:28:14;;;;;;;52.80;28.20;;;10.90;99.90;;;;;;5049683;28;20026;-81
2021/11/13 02:30:40;;;;;;;49.15;25.98;;;10.90;99.90;;;;;;5045035;28;20517;-79
2021/11/13 02:33:07;;;;;;;50.85;26.48;;;11.00;99.90;;;;;;5049246;28;20028;-80
2021/11/13 02:35:33;;;;;;;52.53;26.13;;;10.90;99.90;;;;;;5050260;28;20028;-81
2021/11/13 02:38:13;;;;;;;49.45;27.17;;;11.00;99.90;;;;;;5048452;28;20032;-82
2021/11/13 02:40:41;;;;;;;71.70;31.23;;;11.00;99.90;;;;;;5050139;28;20018;-82
2021/11/13 02:43:07;;;;;;;50.45;27.38;;;11.00;99.90;;;;;;5047405;28;20032;-82
2021/11/13 02:45:34;;;;;;;58.58;30.05;;;11.00;99.90;;;;;;5048404;28;20028;-82
2021/11/13 02:48:02;;;;;;;51.60;25.38;;;11.00;99.90;;;;;;5049405;28;20077;-81
2021/11/13 02:50:28;;;;;;;54.30;26.33;;;11.10;99.90;;;;;;5051395;28;20040;-83
2021/11/13 02:52:57;;;;;;;57.97;28.63;;;11.10;99.90;;;;;;5045610;28;20061;-82
2021/11/13 02:55:24;;;;;;;53.72;26.77;;;11.00;99.90;;;;;;5046438;28;20021;-83
2021/11/13 02:57:50;;;;;;;55.47;27.10;;;11.00;99.90;;;;;;5051499;28;20238;-82
2021/11/13 03:00:23;;;;;;;56.55;26.05;;;11.00;99.90;;;;;;5046777;28;20039;-81
2021/11/13 03:02:50;;;;;;;55.50;28.63;;;11.00;99.90;;;;;;5047377;28;20021;-80
2021/11/13 03:05:46;;;;;;;46.08;25.00;;;11.10;99.90;;;;;;5050137;28;20021;-81
2021/11/13 03:08:12;;;;;;;42.25;23.33;;;11.00;99.90;;;;;;5047004;28;20071;-81
2021/11/13 03:10:38;;;;;;;53.08;26.17;;;11.00;99.90;;;;;;5052997;28;20037;-81
2021/11/13 03:13:05;;;;;;;48.60;25.58;;;11.00;99.90;;;;;;5050008;28;20025;-81
2021/11/13 03:15:31;;;;;;;41.25;23.05;;;11.00;99.90;;;;;;5045215;28;20115;-81
2021/11/13 03:17:58;;;;;;;41.97;22.45;;;11.00;99.90;;;;;;5045144;28;20061;-81
2021/11/13 03:20:28;;;;;;;51.97;25.10;;;11.00;99.90;;;;;;5041291;28;20021;-82
2021/11/13 03:22:55;;;;;;;41.10;22.75;;;11.00;99.90;;;;;;5049953;28;20021;-80
2021/11/13 03:25:24;;;;;;;40.53;24.05;;;11.10;99.90;;;;;;5046279;28;20033;-81
2021/11/13 03:27:53;;;;;;;50.80;26.25;;;11.00;99.90;;;;;;5046216;28;20055;-80
2021/11/13 03:30:21;;;;;;;46.70;25.38;;;11.00;99.90;;;;;;5049666;28;20096;-80
2021/11/13 03:32:48;;;;;;;49.08;26.73;;;11.10;99.90;;;;;;5046546;28;20057;-83
2021/11/13 03:35:16;;;;;;;50.38;26.92;;;11.10;99.90;;;;;;5056759;28;20025;-81
2021/11/13 03:37:43;;;;;;;51.92;27.15;;;11.00;99.90;;;;;;5054475;28;20033;-81
2021/11/13 03:40:10;;;;;;;53.55;28.23;;;11.10;99.90;;;;;;5047356;28;20021;-81
2021/11/13 03:42:38;;;;;;;48.08;25.65;;;11.10;99.90;;;;;;5053464;28;20041;-81
2021/11/13 03:45:05;;;;;;;51.97;26.48;;;11.10;99.90;;;;;;5051459;28;20021;-80
2021/11/13 03:47:31;;;;;;;48.00;27.20;;;11.10;99.90;;;;;;5046794;28;20025;-80
2021/11/13 03:49:57;;;;;;;54.42;28.42;;;11.10;99.90;;;;;;5051329;28;20013;-81
2021/11/13 03:52:22;;;;;;;56.30;28.30;;;11.10;99.90;;;;;;5049036;28;20021;-81
2021/11/13 03:54:48;;;;;;;52.75;28.05;;;11.10;99.90;;;;;;5042632;28;20028;-81
2021/11/13 03:57:14;;;;;;;58.83;29.73;;;11.10;99.90;;;;;;5053991;28;20263;-81
2021/11/13 03:59:39;;;;;;;42.08;24.95;;;11.10;99.90;;;;;;5051966;28;20108;-81
2021/11/13 04:02:05;;;;;;;58.28;27.48;;;11.10;99.90;;;;;;5052570;28;20493;-81
2021/11/13 04:04:31;;;;;;;47.97;26.25;;;11.20;99.90;;;;;;5053651;28;20534;-82
2021/11/13 04:06:56;;;;;;;45.03;26.02;;;11.20;99.90;;;;;;5055484;28;20029;-82
2021/11/13 04:09:22;;;;;;;49.28;28.17;;;11.20;99.90;;;;;;5049706;28;20079;-81
2021/11/13 04:11:47;;;;;;;43.53;24.48;;;11.20;99.90;;;;;;5054809;28;20033;-81
2021/11/13 04:14:13;;;;;;;50.65;27.02;;;11.20;99.90;;;;;;5048354;28;20161;-80
2021/11/13 04:16:39;;;;;;;48.28;26.75;;;11.30;99.90;;;;;;5055002;28;20474;-81
2021/11/13 04:19:10;;;;;;;54.15;30.65;;;11.30;99.90;;;;;;5049832;28;20493;-81
2021/11/13 04:21:37;;;;;;;54.35;27.73;;;11.20;99.90;;;;;;5049955;28;20037;-82
2021/11/13 04:24:05;;;;;;;51.10;26.35;;;11.20;99.90;;;;;;5052263;28;20017;-82
2021/11/13 04:26:30;;;;;;;61.05;31.85;;;11.30;99.90;;;;;;5051421;28;20033;-81
2021/11/13 04:28:56;;;;;;;54.33;29.95;;;11.30;99.90;;;;;;5054622;28;20074;-81
2021/11/13 04:31:22;;;;;;;55.05;30.77;;;11.30;99.90;;;;;;5054198;28;20040;-81
2021/11/13 04:33:48;;;;;;;78.30;36.10;;;11.30;99.90;;;;;;5052721;28;20029;-81
2021/11/13 04:38:42;;;;;;;67.30;34.08;;;11.30;99.90;;;;;;5055477;28;20037;-82
2021/11/13 04:41:08;;;;;;;66.57;34.53;;;11.30;99.90;;;;;;5052436;28;20017;-82
2021/11/13 04:43:34;;;;;;;69.78;35.60;;;11.30;99.90;;;;;;5048055;28;20033;-82
2021/11/13 04:46:00;;;;;;;72.47;34.97;;;11.30;99.90;;;;;;5050684;28;20025;-82
2021/11/13 04:48:26;;;;;;;68.05;34.63;;;11.40;99.90;;;;;;5057372;28;20075;-81
2021/11/13 04:50:52;;;;;;;76.43;36.50;;;11.40;99.90;;;;;;5050640;28;20021;-80
2021/11/13 04:53:17;;;;;;;70.43;36.45;;;11.40;99.90;;;;;;5049639;28;20027;-81
2021/11/13 04:55:44;;;;;;;66.63;35.55;;;11.40;99.90;;;;;;5048100;28;20029;-81
2021/11/13 04:58:09;;;;;;;74.32;36.63;;;11.30;99.90;;;;;;5050596;28;20025;-82
2021/11/13 05:00:35;;;;;;;60.78;33.42;;;11.30;99.90;;;;;;5048845;28;20029;-82
2021/11/13 05:03:02;;;;;;;61.28;33.85;;;11.30;99.90;;;;;;5049369;28;20032;-82
2021/11/13 05:05:29;;;;;;;60.85;31.58;;;11.40;99.90;;;;;;5052822;28;20018;-83
2021/11/13 05:07:55;;;;;;;73.45;35.20;;;11.40;99.90;;;;;;5051649;28;20017;-82
2021/11/13 05:10:21;;;;;;;71.03;32.35;;;11.40;99.90;;;;;;5052740;28;20056;-80
2021/11/13 05:12:47;;;;;;;51.40;28.08;;;11.40;99.90;;;;;;5051946;28;20473;-81
2021/11/13 05:15:13;;;;;;;56.47;30.13;;;11.40;99.90;;;;;;5055578;28;20115;-81
2021/11/13 05:17:39;;;;;;;47.28;26.85;;;11.40;99.90;;;;;;5054101;28;20037;-80
2021/11/13 05:20:09;;;;;;;61.00;28.70;;;11.40;99.90;;;;;;5046570;28;20044;-81
2021/11/13 05:22:36;;;;;;;48.45;27.30;;;11.40;99.90;;;;;;5053234;28;20029;-81
2021/11/13 05:25:04;;;;;;;39.58;24.25;;;11.40;99.90;;;;;;5053136;28;20020;-81
2021/11/13 05:27:30;;;;;;;49.30;27.08;;;11.40;99.90;;;;;;5057899;28;20028;-81
2021/11/13 05:29:55;;;;;;;50.25;26.92;;;11.40;99.90;;;;;;5049514;28;20496;-82
2021/11/13 05:32:21;;;;;;;54.45;28.00;;;11.40;99.90;;;;;;5053420;28;20040;-83
2021/11/13 05:34:47;;;;;;;49.45;27.23;;;11.50;99.90;;;;;;5043469;28;20479;-83
2021/11/13 05:37:12;;;;;;;42.15;25.40;;;11.40;99.90;;;;;;5051771;28;20029;-82
2021/11/13 05:39:38;;;;;;;40.50;24.15;;;11.50;99.90;;;;;;5060066;28;20017;-81
2021/11/13 05:42:05;;;;;;;56.65;28.13;;;11.50;99.90;;;;;;5052069;28;20100;-81
2021/11/13 05:44:31;;;;;;;46.17;23.88;;;11.50;99.90;;;;;;5049047;28;20110;-81
2021/11/13 05:46:56;;;;;;;47.55;25.80;;;11.40;99.90;;;;;;5050005;28;20485;-81
2021/11/13 05:49:22;;;;;;;52.50;28.27;;;11.50;99.90;;;;;;5048256;28;20075;-81
2021/11/13 05:51:48;;;;;;;51.63;27.45;;;11.50;99.90;;;;;;5050848;28;20381;-81
2021/11/13 05:54:14;;;;;;;48.10;25.65;;;11.40;99.90;;;;;;5045973;28;20108;-81
2021/11/13 05:56:40;;;;;;;43.47;24.23;;;11.50;99.90;;;;;;5047962;28;20479;-81
2021/11/13 05:59:06;;;;;;;43.33;23.88;;;11.50;99.90;;;;;;5050078;28;20103;-82
2021/11/13 06:01:31;;;;;;;43.78;25.17;;;11.60;99.90;;;;;;5054422;28;20032;-82
2021/11/13 06:03:57;;;;;;;47.78;26.38;;;11.60;99.90;;;;;;5055921;28;20103;-81
2021/11/13 06:06:23;;;;;;;39.17;23.55;;;11.50;99.90;;;;;;5047950;28;20029;-82
2021/11/13 06:08:49;;;;;;;44.00;25.33;;;11.50;99.90;;;;;;5050639;28;20029;-82
2021/11/13 06:11:14;;;;;;;39.75;22.30;;;11.50;99.90;;;;;;5045636;28;20033;-82
2021/11/13 06:13:40;;;;;;;48.30;26.15;;;11.40;99.90;;;;;;5045413;28;20039;-81
2021/11/13 06:16:08;;;;;;;49.05;26.83;;;11.50;99.90;;;;;;5051572;28;20108;-82
2021/11/13 06:18:35;;;;;;;52.88;28.52;;;11.50;99.90;;;;;;5051750;28;20047;-81
2021/11/13 06:21:00;;;;;;;47.88;26.30;;;11.60;99.90;;;;;;5052720;28;20032;-81
2021/11/13 06:23:26;;;;;;;44.17;23.90;;;11.50;99.90;;;;;;5047210;28;20431;-81
2021/11/13 06:25:52;;;;;;;49.95;25.35;;;11.60;99.90;;;;;;5048909;28;20040;-81
2021/11/13 06:28:17;;;;;;;60.28;29.23;;;11.50;99.90;;;;;;5052912;28;20028;-81
2021/11/13 06:30:43;;;;;;;48.95;26.92;;;11.50;99.90;;;;;;5051728;28;20047;-81
2021/11/13 06:33:09;;;;;;;52.35;28.33;;;11.60;99.90;;;;;;5049805;28;20378;-82
2021/11/13 06:35:36;;;;;;;48.50;26.23;;;11.60;99.90;;;;;;5050968;28;20090;-81
2021/11/13 06:38:02;;;;;;;61.63;29.33;;;11.60;99.90;;;;;;5045707;28;20021;-81
2021/11/13 06:40:28;;;;;;;50.38;26.02;;;11.60;99.90;;;;;;5050806;28;20486;-80
2021/11/13 06:42:53;;;;;;;61.03;30.60;;;11.70;99.90;;;;;;5052397;28;20017;-81
2021/11/13 06:45:20;;;;;;;50.88;27.98;;;11.70;99.90;;;;;;5055563;28;20088;-80
2021/11/13 06:47:46;;;;;;;54.38;28.05;;;11.70;99.90;;;;;;5051021;28;20104;-80
2021/11/13 06:50:13;;;;;;;60.80;30.45;;;11.70;99.90;;;;;;5049110;28;20044;-81
2021/11/13 06:52:39;;;;;;;58.58;28.63;;;11.70;99.90;;;;;;5054813;28;20027;-80
2021/11/13 06:55:06;;;;;;;65.30;29.70;;;11.60;99.90;;;;;;5050706;28;20100;-82
2021/11/13 06:57:32;;;;;;;62.65;30.05;;;11.70;99.90;;;;;;5053684;28;20048;-81
2021/11/13 06:59:58;;;;;;;55.10;28.58;;;11.80;99.90;;;;;;5042105;28;20017;-81
2021/11/13 07:02:23;;;;;;;59.95;31.20;;;11.70;99.90;;;;;;5050004;28;20050;-82
2021/11/13 07:04:49;;;;;;;61.13;29.38;;;11.80;99.90;;;;;;5050994;28;20092;-81
2021/11/13 07:07:15;;;;;;;58.38;30.25;;;11.80;99.90;;;;;;5053703;28;20040;-82
2021/11/13 07:09:40;;;;;;;77.97;33.72;;;11.80;99.90;;;;;;5056348;28;20035;-82
2021/11/13 07:12:07;;;;;;;68.70;31.73;;;11.70;99.90;;;;;;5044258;28;20029;-81
2021/11/13 07:14:32;;;;;;;77.03;34.85;;;11.80;99.90;;;;;;5048496;28;20430;-80
2021/11/13 07:16:58;;;;;;;66.47;32.90;;;11.70;99.90;;;;;;5045462;28;20065;-81
2021/11/13 07:19:24;;;;;;;84.78;37.38;;;11.80;99.90;;;;;;5050127;28;20018;-80
2021/11/13 07:21:50;;;;;;;93.85;37.22;;;11.70;99.90;;;;;;5049824;28;20733;-80
2021/11/13 07:24:16;;;;;;;72.80;33.90;;;11.70;99.90;;;;;;5042717;28;20026;-80
2021/11/13 07:26:41;;;;;;;100.38;37.08;;;11.70;99.90;;;;;;5044082;28;20037;-81
2021/11/13 07:29:12;;;;;;;72.22;31.25;;;11.80;99.90;;;;;;5045528;28;20057;-80
2021/11/13 07:31:37;;;;;;;70.32;33.95;;;11.80;99.90;;;;;;5050773;28;20078;-81
2021/11/13 07:34:03;;;;;;;53.42;29.25;;;11.80;99.90;;;;;;5048856;28;20036;-82
2021/11/13 07:36:30;;;;;;;63.80;31.80;;;11.90;99.90;;;;;;5045481;28;20033;-81
2021/11/13 07:38:56;;;;;;;53.67;28.85;;;11.90;99.90;;;;;;5051973;28;20029;-81
2021/11/13 07:41:23;;;;;;;65.07;32.47;;;11.90;99.90;;;;;;5049776;28;20096;-81
2021/11/13 07:43:50;;;;;;;64.40;30.90;;;11.90;99.90;;;;;;5048494;28;20020;-82
2021/11/13 07:46:16;;;;;;;73.95;33.45;;;11.90;99.90;;;;;;5052481;28;20103;-82
2021/11/13 07:48:42;;;;;;;67.97;31.35;;;11.90;99.90;;;;;;5049093;28;20156;-82
2021/11/13 07:51:08;;;;;;;83.60;36.58;;;11.90;99.90;;;;;;5051948;28;20064;-82
2021/11/13 07:53:34;;;;;;;68.60;32.95;;;11.90;99.90;;;;;;5051987;28;20476;-82
2021/11/13 07:56:00;;;;;;;59.60;32.05;;;11.90;99.90;;;;;;5052470;28;20052;-81
2021/11/13 07:58:26;;;;;;;70.50;33.72;;;11.90;99.90;;;;;;5050589;28;20360;-81
2021/11/13 08:00:52;;;;;;;85.65;35.08;;;11.90;99.90;;;;;;5049319;28;20392;-81
2021/11/13 08:03:18;;;;;;;57.83;29.40;;;12.00;99.90;;;;;;5058592;28;20017;-80
2021/11/13 08:05:45;;;;;;;85.40;34.78;;;12.10;99.90;;;;;;5049634;28;20060;-80
2021/11/13 08:08:10;;;;;;;77.97;33.30;;;12.10;99.90;;;;;;5050557;28;20362;-80
2021/11/13 08:10:41;;;;;;;85.97;35.47;;;12.10;99.90;;;;;;5048608;28;20028;-81
2021/11/13 08:13:08;;;;;;;65.97;34.65;;;12.20;99.90;;;;;;5053553;28;20024;-80
2021/11/13 08:15:34;;;;;;;61.35;29.75;;;12.10;99.90;;;;;;5052184;28;20027;-80
2021/11/13 08:17:59;;;;;;;56.35;33.53;;;12.10;99.90;;;;;;5047415;28;20445;-80
2021/11/13 08:20:25;;;;;;;78.07;36.35;;;12.20;99.90;;;;;;5054642;28;20023;-80
2021/11/13 08:22:51;;;;;;;53.65;28.23;;;12.20;99.90;;;;;;5050477;28;20111;-80
2021/11/13 08:25:17;;;;;;;77.72;34.30;;;12.30;99.90;;;;;;5053190;28;20107;-78
2021/11/13 08:27:43;;;;;;;82.78;35.38;;;12.20;99.90;;;;;;5052102;28;20021;-77
2021/11/13 08:30:11;;;;;;;76.93;34.83;;;12.30;99.90;;;;;;5033718;28;20501;-79
2021/11/13 08:32:37;;;;;;;63.85;29.30;;;12.30;99.90;;;;;;5052396;28;20029;-79
2021/11/13 08:35:04;;;;;;;82.47;34.55;;;12.40;99.90;;;;;;5037437;28;20654;-78
2021/11/13 08:37:30;;;;;;;70.70;31.27;;;12.40;99.90;;;;;;5038692;28;20068;-80
2021/11/13 08:39:57;;;;;;;82.57;33.53;;;12.40;99.90;;;;;;5045362;28;20057;-81
2021/11/13 08:42:23;;;;;;;55.08;28.05;;;12.40;99.90;;;;;;5033678;28;20032;-81
2021/11/13 08:44:50;;;;;;;68.13;31.23;;;12.50;99.90;;;;;;5035090;28;20021;-80
2021/11/13 08:47:15;;;;;;;66.45;29.95;;;12.50;99.90;;;;;;5034890;28;20021;-81
2021/11/13 08:49:45;;;;;;;70.57;30.23;;;12.50;99.90;;;;;;5035004;28;20029;-80
2021/11/13 08:52:13;;;;;;;51.70;25.95;;;12.50;99.90;;;;;;5035058;28;20029;-79
2021/11/13 08:54:39;;;;;;;53.58;24.27;;;12.50;99.90;;;;;;5039195;28;20029;-81
2021/11/13 08:57:06;;;;;;;65.68;30.35;;;12.50;99.90;;;;;;5054805;28;20488;-84
2021/11/13 08:59:32;;;;;;;80.45;31.02;;;12.60;99.90;;;;;;5055166;28;20033;-83
2021/11/13 09:02:00;;;;;;;45.40;23.75;;;12.70;99.90;;;;;;5053029;28;20393;-83
2021/11/13 09:04:26;;;;;;;41.47;21.23;;;12.70;99.90;;;;;;5053505;28;20466;-82
2021/11/13 09:06:53;;;;;;;50.50;24.10;;;12.70;99.90;;;;;;5054305;28;20033;-82
2021/11/13 09:09:18;;;;;;;42.10;21.25;;;12.80;99.90;;;;;;5050825;28;20028;-81
2021/11/13 09:11:44;;;;;;;50.00;22.55;;;12.80;99.90;;;;;;5052028;28;20029;-81
2021/11/13 09:14:13;;;;;;;41.55;20.52;;;12.90;99.90;;;;;;5051884;28;20021;-79
2021/11/13 09:16:40;;;;;;;40.40;20.60;;;12.80;99.90;;;;;;5053912;28;20052;-79
2021/11/13 09:19:06;;;;;;;36.53;20.73;;;12.90;99.90;;;;;;5041190;28;20013;-79
2021/11/13 09:21:33;;;;;;;37.67;19.13;;;12.90;99.90;;;;;;5016661;28;20385;-79
2021/11/13 09:24:03;;;;;;;45.45;21.42;;;12.90;99.90;;;;;;5041704;28;20090;-79
2021/11/13 09:26:28;;;;;;;46.42;22.25;;;12.90;99.90;;;;;;5052644;28;20024;-79
2021/11/13 09:28:56;;;;;;;40.47;20.17;;;12.90;99.90;;;;;;5047955;28;20022;-79
2021/11/13 09:31:22;;;;;;;41.53;21.38;;;13.00;99.90;;;;;;5045432;28;20031;-79
2021/11/13 09:33:48;;;;;;;38.85;19.80;;;13.00;99.90;;;;;;5033643;28;20046;-79
2021/11/13 09:36:14;;;;;;;37.58;19.70;;;13.00;99.90;;;;;;5033832;28;20025;-80
2021/11/13 09:38:42;;;;;;;48.40;22.25;;;13.00;99.90;;;;;;5032152;28;20025;-79
2021/11/13 09:41:09;;;;;;;47.25;23.83;;;13.10;99.90;;;;;;5033390;28;20390;-80
2021/11/13 09:43:36;;;;;;;43.55;21.15;;;13.10;99.90;;;;;;5050141;28;20036;-80
2021/11/13 09:46:05;;;;;;;48.03;23.40;;;13.10;99.90;;;;;;5040811;28;20017;-80
2021/11/13 09:48:31;;;;;;;51.03;23.73;;;13.10;99.90;;;;;;5043905;28;20036;-80
2021/11/13 09:50:57;;;;;;;55.85;25.63;;;13.20;99.90;;;;;;5042784;28;20022;-80
2021/11/13 09:53:24;;;;;;;56.70;24.75;;;13.10;99.90;;;;;;5040784;28;20079;-80
2021/11/13 09:55:52;;;;;;;47.28;23.20;;;13.10;99.90;;;;;;5045915;28;20294;-81
2021/11/13 09:58:19;;;;;;;39.03;21.55;;;13.10;99.90;;;;;;5033653;28;20103;-79
2021/11/13 10:00:45;;;;;;;47.40;21.60;;;13.20;99.90;;;;;;5032759;28;20036;-80
2021/11/13 10:03:18;;;;;;;44.80;21.80;;;13.20;99.90;;;;;;5033360;28;20395;-79
2021/11/13 10:05:43;;;;;;;;;;;13.10;99.90;;;;;;5032331;28;20101;-78
2021/11/13 10:08:09;;;;;;;33.97;18.50;;;13.20;99.90;;;;;;5033569;28;20012;-78
2021/11/13 10:10:41;;;;;;;35.97;18.40;;;13.10;99.90;;;;;;5043576;28;20029;-76
2021/11/13 10:13:32;;;;;;;38.25;20.33;;;13.20;99.90;;;;;;5051458;28;20473;-76
2021/11/13 10:16:07;;;;;;;39.97;20.23;;;13.20;99.90;;;;;;5042442;28;20056;-76
2021/11/13 10:18:39;;;;;;;31.63;18.95;;;13.20;99.90;;;;;;5049497;28;20032;-78
2021/11/13 10:21:17;;;;;;;38.70;18.75;;;13.20;99.90;;;;;;5051288;28;20035;-76
2021/11/13 10:23:47;;;;;;;31.55;18.25;;;13.20;99.90;;;;;;5051002;28;20036;-76
2021/11/13 10:26:35;;;;;;;41.00;20.42;;;13.30;99.90;;;;;;5052124;28;20029;-78
2021/11/13 10:29:10;;;;;;;39.78;19.67;;;13.30;99.90;;;;;;5050433;28;20037;-87
2021/11/13 10:31:46;;;;;;;37.78;19.98;;;13.30;99.90;;;;;;5051935;28;20120;-84
2021/11/13 10:34:24;;;;;;;38.42;18.70;;;13.40;99.90;;;;;;5053084;28;20021;-85
2021/11/13 10:36:57;;;;;;;32.40;18.08;;;13.50;99.90;;;;;;5052043;28;20033;-88
2021/11/13 10:39:27;;;;;;;31.60;17.70;;;13.50;99.90;;;;;;5052561;28;20108;-89
2021/11/13 10:42:02;;;;;;;39.13;19.17;;;13.50;99.90;;;;;;5054173;28;20028;-76
2021/11/13 10:44:30;;;;;;;32.65;17.90;;;13.50;99.90;;;;;;5052496;28;20017;-82
2021/11/13 10:47:00;;;;;;;35.17;19.30;;;13.50;99.90;;;;;;5034963;28;20034;-81
2021/11/13 10:49:26;;;;;;;36.00;18.90;;;13.50;99.90;;;;;;5046791;28;20104;-82
2021/11/13 10:51:58;;;;;;;36.00;18.15;;;13.60;99.90;;;;;;5045956;28;20017;-88
2021/11/13 10:54:24;;;;;;;33.55;18.42;;;13.60;99.90;;;;;;5048061;28;20080;-87
2021/11/13 10:56:53;;;;;;;30.33;18.15;;;13.60;99.90;;;;;;5044635;28;20112;-83
2021/11/13 10:59:37;;;;;;;39.67;20.40;;;13.60;99.90;;;;;;5041269;28;20032;-76
2021/11/13 11:02:06;;;;;;;41.17;22.65;;;13.60;99.90;;;;;;5040617;28;20112;-77
2021/11/13 11:04:35;;;;;;;48.95;23.63;;;13.60;99.90;;;;;;5042291;28;20029;-77
2021/11/13 11:07:14;;;;;;;38.97;19.38;;;13.60;99.90;;;;;;5048908;28;20028;-78
2021/11/13 11:09:41;;;;;;;37.63;19.55;;;13.60;99.90;;;;;;5046997;28;20021;-78
2021/11/13 11:12:21;;;;;;;35.25;18.38;;;13.60;99.90;;;;;;5045896;28;20025;-77
2021/11/13 11:14:49;;;;;;;33.63;19.48;;;13.60;99.90;;;;;;5046154;28;20033;-77
2021/11/13 11:17:28;;;;;;;30.88;17.40;;;13.60;99.90;;;;;;5047256;28;20090;-77
2021/11/13 11:20:01;;;;;;;30.40;17.63;;;13.60;99.90;;;;;;5045829;28;20112;-78
2021/11/13 11:22:28;;;;;;;30.13;16.50;;;13.70;99.90;;;;;;5045504;28;20051;-77
2021/11/13 11:24:59;;;;;;;31.05;17.02;;;13.70;99.90;;;;;;5046336;28;20541;-80
2021/11/13 11:27:25;;;;;;;30.55;17.15;;;13.80;99.90;;;;;;5045394;28;20079;-79
2021/11/13 11:29:50;;;;;;;28.67;16.73;;;13.80;99.90;;;;;;5048728;28;20147;-78
2021/11/13 11:32:20;;;;;;;29.08;18.27;;;13.90;99.90;;;;;;5041337;28;20383;-79
2021/11/13 11:34:47;;;;;;;27.00;15.65;;;13.90;99.90;;;;;;5036336;28;20067;-78
2021/11/13 11:37:18;;;;;;;33.78;17.70;;;13.80;99.90;;;;;;5041107;28;20038;-78
2021/11/13 11:39:48;;;;;;;30.50;18.33;;;13.90;99.90;;;;;;5043541;28;20045;-78
2021/11/13 11:42:14;;;;;;;43.22;19.75;;;13.90;99.90;;;;;;5044994;28;20025;-78
2021/11/13 11:44:43;;;;;;;43.00;18.80;;;13.90;99.90;;;;;;5043420;28;20147;-78
2021/11/13 11:47:13;;;;;;;34.22;18.45;;;13.90;99.90;;;;;;5044943;28;20032;-78
2021/11/13 11:49:44;;;;;;;35.15;18.63;;;13.90;99.90;;;;;;5044519;28;20036;-76
2021/11/13 11:52:12;;;;;;;25.63;16.83;;;13.90;99.90;;;;;;5043808;28;20025;-76
2021/11/13 11:54:38;;;;;;;23.70;15.32;;;13.80;99.90;;;;;;5040091;28;20029;-75
2021/11/13 11:57:04;;;;;;;29.33;16.15;;;13.80;99.90;;;;;;5051035;28;20140;-76
2021/11/13 11:59:32;;;;;;;25.95;15.98;;;13.80;99.90;;;;;;5042477;28;20473;-76
2021/11/13 12:02:13;;;;;;;24.52;15.77;;;13.80;99.90;;;;;;5054643;28;20546;-77
2021/11/13 12:04:40;;;;;;;29.88;17.67;;;13.80;99.90;;;;;;5044277;28;20489;-78
2021/11/13 12:07:07;;;;;;;30.73;16.50;;;13.80;99.90;;;;;;5050702;28;20075;-77
2021/11/13 12:09:33;;;;;;;35.67;18.92;;;13.80;99.90;;;;;;5054574;28;20440;-79
2021/11/13 12:12:18;;;;;;;33.63;18.13;;;13.90;99.90;;;;;;5054738;28;20104;-76
2021/11/13 12:14:45;;;;;;;25.85;16.58;;;13.80;99.90;;;;;;5054970;28;20110;-76
2021/11/13 12:17:34;;;;;;;27.30;16.83;;;13.90;99.90;;;;;;5054024;28;20539;-75
2021/11/13 12:20:15;;;;;;;27.48;17.30;;;13.90;99.90;;;;;;5051885;28;20504;-79
2021/11/13 12:22:46;;;;;;;31.83;18.35;;;14.00;99.90;;;;;;5039591;28;20285;-77
2021/11/13 12:25:20;;;;;;;28.52;16.17;;;14.00;99.90;;;;;;5034417;28;20167;-82
2021/11/13 12:28:04;;;;;;;31.60;17.52;;;14.00;99.90;;;;;;5038253;28;20021;-78
2021/11/13 12:30:50;;;;;;;30.70;17.55;;;14.00;99.90;;;;;;5052157;28;20032;-77
2021/11/13 12:33:24;;;;;;;28.60;17.00;;;14.00;99.90;;;;;;5033991;28;20432;-76